sensor_id;sensor_type;location;lat;lon;timestamp;P1;durP1;ratioP1;P2;durP2;ratioP2
5032;SDS011;2535;49.888;8.942;2023-08-01T00:01:37;42.90;;;2.00;;
5032;SDS011;2535;49.888;8.942;2023-08-01T00:04:03;37.50;;;2.00;;
5032;SDS011;2535;49.888;8.942;2023-08-01T00:06:29;36.83;;;1.87;;
5032;SDS011;2535;49.888;8.942;2023-08-01T00:08:55;38.27;;;2.17;;
5032;SDS011;2535;49.888;8.942;2023-08-01T00:11:20;41.27;;;2.20;;
5032;SDS011;2535;49.888;8.942;2023-08-01T00:13:46;36.07;;;1.60;;
5032;SDS011;2535;49.888;8.942;2023-08-01T00:16:12;39.87;;;1.83;;
5032;SDS011;2535;49.888;8.942;2023-08-01T00:18:38;38.60;;;2.00;;
5032;SDS011;2535;49.888;8.942;2023-08-01T00:21:04;39.10;;;2.43;;
5032;SDS011;2535;49.888;8.942;2023-08-01T00:23:34;38.60;;;2.37;;
5032;SDS011;2535;49.888;8.942;2023-08-01T00:26:00;36.97;;;2.07;;
5032;SDS011;2535;49.888;8.942;2023-08-01T00:28:26;36.50;;;1.77;;
5032;SDS011;2535;49.888;8.942;2023-08-01T00:31:01;37.17;;;2.10;;
5032;SDS011;2535;49.888;8.942;2023-08-01T00:33:27;37.50;;;2.17;;
5032;SDS011;2535;49.888;8.942;2023-08-01T00:35:53;36.47;;;1.83;;
5032;SDS011;2535;49.888;8.942;2023-08-01T00:38:19;38.00;;;2.00;;
5032;SDS011;2535;49.888;8.942;2023-08-01T00:40:45;37.70;;;2.23;;
5032;SDS011;2535;49.888;8.942;2023-08-01T00:43:11;36.67;;;2.00;;
5032;SDS011;2535;49.888;8.942;2023-08-01T00:45:37;36.90;;;2.00;;
5032;SDS011;2535;49.888;8.942;2023-08-01T00:48:03;36.73;;;1.70;;
5032;SDS011;2535;49.888;8.942;2023-08-01T00:50:29;35.70;;;1.87;;
5032;SDS011;2535;49.888;8.942;2023-08-01T00:52:55;37.90;;;2.53;;
5032;SDS011;2535;49.888;8.942;2023-08-01T00:55:22;36.33;;;2.40;;
5032;SDS011;2535;49.888;8.942;2023-08-01T00:57:48;38.20;;;2.50;;
5032;SDS011;2535;49.888;8.942;2023-08-01T01:00:14;35.93;;;1.90;;
5032;SDS011;2535;49.888;8.942;2023-08-01T01:02:40;40.67;;;2.13;;
5032;SDS011;2535;49.888;8.942;2023-08-01T01:05:06;35.33;;;1.70;;
5032;SDS011;2535;49.888;8.942;2023-08-01T01:07:32;36.37;;;1.87;;
5032;SDS011;2535;49.888;8.942;2023-08-01T01:09:58;39.10;;;2.60;;
5032;SDS011;2535;49.888;8.942;2023-08-01T01:12:24;35.30;;;2.03;;
5032;SDS011;2535;49.888;8.942;2023-08-01T01:14:51;36.60;;;1.90;;
5032;SDS011;2535;49.888;8.942;2023-08-01T01:17:17;34.57;;;1.60;;
5032;SDS011;2535;49.888;8.942;2023-08-01T01:19:43;37.03;;;1.73;;
5032;SDS011;2535;49.888;8.942;2023-08-01T01:22:17;35.87;;;1.83;;
5032;SDS011;2535;49.888;8.942;2023-08-01T01:24:44;36.67;;;1.93;;
5032;SDS011;2535;49.888;8.942;2023-08-01T01:27:11;35.30;;;1.67;;
5032;SDS011;2535;49.888;8.942;2023-08-01T01:29:37;35.80;;;2.23;;
5032;SDS011;2535;49.888;8.942;2023-08-01T01:32:04;34.97;;;1.43;;
5032;SDS011;2535;49.888;8.942;2023-08-01T01:34:31;35.77;;;2.00;;
5032;SDS011;2535;49.888;8.942;2023-08-01T01:36:57;35.63;;;1.80;;
5032;SDS011;2535;49.888;8.942;2023-08-01T01:39:23;35.67;;;2.10;;
5032;SDS011;2535;49.888;8.942;2023-08-01T01:41:48;37.47;;;2.00;;
5032;SDS011;2535;49.888;8.942;2023-08-01T01:44:14;47.77;;;2.23;;
5032;SDS011;2535;49.888;8.942;2023-08-01T01:46:40;35.00;;;2.00;;
5032;SDS011;2535;49.888;8.942;2023-08-01T01:49:06;35.07;;;1.57;;
5032;SDS011;2535;49.888;8.942;2023-08-01T01:51:32;39.50;;;2.30;;
5032;SDS011;2535;49.888;8.942;2023-08-01T01:53:58;35.70;;;2.20;;
5032;SDS011;2535;49.888;8.942;2023-08-01T01:56:24;38.27;;;2.70;;
5032;SDS011;2535;49.888;8.942;2023-08-01T01:58:50;37.27;;;2.07;;
5032;SDS011;2535;49.888;8.942;2023-08-01T02:01:16;35.90;;;1.90;;
5032;SDS011;2535;49.888;8.942;2023-08-01T02:03:42;37.63;;;2.93;;
5032;SDS011;2535;49.888;8.942;2023-08-01T02:06:08;37.67;;;2.33;;
5032;SDS011;2535;49.888;8.942;2023-08-01T02:08:34;37.93;;;2.57;;
5032;SDS011;2535;49.888;8.942;2023-08-01T02:11:00;38.00;;;2.70;;
5032;SDS011;2535;49.888;8.942;2023-08-01T02:13:26;37.17;;;2.37;;
5032;SDS011;2535;49.888;8.942;2023-08-01T02:15:53;35.83;;;1.77;;
5032;SDS011;2535;49.888;8.942;2023-08-01T02:18:19;36.00;;;1.93;;
5032;SDS011;2535;49.888;8.942;2023-08-01T02:20:45;36.80;;;2.00;;
5032;SDS011;2535;49.888;8.942;2023-08-01T02:23:11;39.60;;;2.63;;
5032;SDS011;2535;49.888;8.942;2023-08-01T02:25:40;36.87;;;2.20;;
5032;SDS011;2535;49.888;8.942;2023-08-01T02:28:06;38.17;;;1.70;;
5032;SDS011;2535;49.888;8.942;2023-08-01T02:30:33;42.07;;;2.80;;
5032;SDS011;2535;49.888;8.942;2023-08-01T02:32:59;35.67;;;2.03;;
5032;SDS011;2535;49.888;8.942;2023-08-01T02:35:25;35.90;;;1.83;;
5032;SDS011;2535;49.888;8.942;2023-08-01T02:37:53;35.00;;;1.57;;
5032;SDS011;2535;49.888;8.942;2023-08-01T02:40:19;35.80;;;1.77;;
5032;SDS011;2535;49.888;8.942;2023-08-01T02:42:45;35.17;;;1.93;;
5032;SDS011;2535;49.888;8.942;2023-08-01T02:45:11;35.80;;;2.50;;
5032;SDS011;2535;49.888;8.942;2023-08-01T02:47:36;35.00;;;1.60;;
5032;SDS011;2535;49.888;8.942;2023-08-01T02:50:03;34.80;;;1.47;;
5032;SDS011;2535;49.888;8.942;2023-08-01T02:52:29;37.93;;;2.03;;
5032;SDS011;2535;49.888;8.942;2023-08-01T02:54:55;35.60;;;1.97;;
5032;SDS011;2535;49.888;8.942;2023-08-01T02:57:21;35.17;;;1.60;;
5032;SDS011;2535;49.888;8.942;2023-08-01T02:59:47;36.17;;;2.30;;
5032;SDS011;2535;49.888;8.942;2023-08-01T03:02:13;35.17;;;1.77;;
5032;SDS011;2535;49.888;8.942;2023-08-01T03:04:39;35.93;;;2.20;;
5032;SDS011;2535;49.888;8.942;2023-08-01T03:07:04;36.90;;;1.57;;
5032;SDS011;2535;49.888;8.942;2023-08-01T03:09:32;37.50;;;2.07;;
5032;SDS011;2535;49.888;8.942;2023-08-01T03:11:57;35.20;;;1.57;;
5032;SDS011;2535;49.888;8.942;2023-08-01T03:14:23;36.13;;;1.50;;
5032;SDS011;2535;49.888;8.942;2023-08-01T03:16:49;34.87;;;1.20;;
5032;SDS011;2535;49.888;8.942;2023-08-01T03:19:15;34.80;;;1.30;;
5032;SDS011;2535;49.888;8.942;2023-08-01T03:21:41;37.70;;;2.37;;
5032;SDS011;2535;49.888;8.942;2023-08-01T03:24:07;36.17;;;1.80;;
5032;SDS011;2535;49.888;8.942;2023-08-01T03:26:34;35.50;;;1.27;;
5032;SDS011;2535;49.888;8.942;2023-08-01T03:29:00;37.00;;;1.83;;
5032;SDS011;2535;49.888;8.942;2023-08-01T03:31:26;36.40;;;1.73;;
5032;SDS011;2535;49.888;8.942;2023-08-01T03:33:53;35.17;;;1.60;;
5032;SDS011;2535;49.888;8.942;2023-08-01T03:36:19;36.20;;;1.90;;
5032;SDS011;2535;49.888;8.942;2023-08-01T03:38:45;36.53;;;1.73;;
5032;SDS011;2535;49.888;8.942;2023-08-01T03:41:11;35.03;;;1.33;;
5032;SDS011;2535;49.888;8.942;2023-08-01T03:43:37;35.43;;;1.67;;
5032;SDS011;2535;49.888;8.942;2023-08-01T03:46:03;37.50;;;2.00;;
5032;SDS011;2535;49.888;8.942;2023-08-01T03:48:29;39.13;;;2.50;;
5032;SDS011;2535;49.888;8.942;2023-08-01T03:50:55;39.50;;;3.40;;
5032;SDS011;2535;49.888;8.942;2023-08-01T03:53:21;35.50;;;1.70;;
5032;SDS011;2535;49.888;8.942;2023-08-01T03:55:47;37.30;;;2.13;;
5032;SDS011;2535;49.888;8.942;2023-08-01T03:58:13;36.67;;;2.00;;
5032;SDS011;2535;49.888;8.942;2023-08-01T04:00:39;35.97;;;1.73;;
5032;SDS011;2535;49.888;8.942;2023-08-01T04:03:05;37.63;;;2.43;;
5032;SDS011;2535;49.888;8.942;2023-08-01T04:05:31;35.90;;;1.57;;
5032;SDS011;2535;49.888;8.942;2023-08-01T04:07:58;35.80;;;1.70;;
5032;SDS011;2535;49.888;8.942;2023-08-01T04:10:24;36.20;;;2.30;;
5032;SDS011;2535;49.888;8.942;2023-08-01T04:12:50;37.07;;;1.53;;
5032;SDS011;2535;49.888;8.942;2023-08-01T04:15:16;38.20;;;1.60;;
5032;SDS011;2535;49.888;8.942;2023-08-01T04:17:42;35.03;;;1.30;;
5032;SDS011;2535;49.888;8.942;2023-08-01T04:20:09;36.97;;;2.03;;
5032;SDS011;2535;49.888;8.942;2023-08-01T04:22:35;36.60;;;2.07;;
5032;SDS011;2535;49.888;8.942;2023-08-01T04:25:01;41.03;;;2.00;;
5032;SDS011;2535;49.888;8.942;2023-08-01T04:27:27;35.80;;;1.60;;
5032;SDS011;2535;49.888;8.942;2023-08-01T04:29:55;37.80;;;2.07;;
5032;SDS011;2535;49.888;8.942;2023-08-01T04:32:21;35.77;;;1.70;;
5032;SDS011;2535;49.888;8.942;2023-08-01T04:34:47;36.70;;;1.93;;
5032;SDS011;2535;49.888;8.942;2023-08-01T04:37:13;37.17;;;2.00;;
5032;SDS011;2535;49.888;8.942;2023-08-01T04:39:39;35.17;;;1.60;;
5032;SDS011;2535;49.888;8.942;2023-08-01T04:42:05;35.60;;;1.60;;
5032;SDS011;2535;49.888;8.942;2023-08-01T04:44:31;35.60;;;1.97;;
5032;SDS011;2535;49.888;8.942;2023-08-01T04:46:57;35.50;;;1.50;;
5032;SDS011;2535;49.888;8.942;2023-08-01T04:49:23;35.27;;;1.70;;
5032;SDS011;2535;49.888;8.942;2023-08-01T04:51:49;35.40;;;1.73;;
5032;SDS011;2535;49.888;8.942;2023-08-01T04:54:15;39.20;;;2.10;;
5032;SDS011;2535;49.888;8.942;2023-08-01T04:56:42;35.60;;;1.40;;
5032;SDS011;2535;49.888;8.942;2023-08-01T04:59:08;35.30;;;1.40;;
5032;SDS011;2535;49.888;8.942;2023-08-01T05:01:33;37.37;;;1.57;;
5032;SDS011;2535;49.888;8.942;2023-08-01T05:03:59;35.80;;;1.70;;
5032;SDS011;2535;49.888;8.942;2023-08-01T05:06:25;36.80;;;1.90;;
5032;SDS011;2535;49.888;8.942;2023-08-01T05:08:52;36.30;;;2.17;;
5032;SDS011;2535;49.888;8.942;2023-08-01T05:11:18;39.90;;;1.67;;
5032;SDS011;2535;49.888;8.942;2023-08-01T05:13:44;37.40;;;1.93;;
5032;SDS011;2535;49.888;8.942;2023-08-01T05:16:10;40.00;;;2.60;;
5032;SDS011;2535;49.888;8.942;2023-08-01T05:18:36;36.53;;;2.07;;
5032;SDS011;2535;49.888;8.942;2023-08-01T05:21:02;36.37;;;1.80;;
5032;SDS011;2535;49.888;8.942;2023-08-01T05:23:28;36.80;;;1.83;;
5032;SDS011;2535;49.888;8.942;2023-08-01T05:25:54;35.20;;;1.87;;
5032;SDS011;2535;49.888;8.942;2023-08-01T05:28:20;35.87;;;1.50;;
5032;SDS011;2535;49.888;8.942;2023-08-01T05:30:46;36.97;;;1.90;;
5032;SDS011;2535;49.888;8.942;2023-08-01T05:33:12;35.97;;;1.97;;
5032;SDS011;2535;49.888;8.942;2023-08-01T05:35:39;36.47;;;2.10;;
5032;SDS011;2535;49.888;8.942;2023-08-01T05:38:05;35.00;;;1.50;;
5032;SDS011;2535;49.888;8.942;2023-08-01T05:40:31;35.73;;;1.93;;
5032;SDS011;2535;49.888;8.942;2023-08-01T05:42:57;34.70;;;1.70;;
5032;SDS011;2535;49.888;8.942;2023-08-01T05:45:23;34.73;;;1.57;;
5032;SDS011;2535;49.888;8.942;2023-08-01T05:47:49;36.40;;;2.37;;
5032;SDS011;2535;49.888;8.942;2023-08-01T05:50:15;39.40;;;2.00;;
5032;SDS011;2535;49.888;8.942;2023-08-01T05:52:41;35.20;;;2.03;;
5032;SDS011;2535;49.888;8.942;2023-08-01T05:55:07;37.37;;;1.97;;
5032;SDS011;2535;49.888;8.942;2023-08-01T05:57:33;36.60;;;1.83;;
5032;SDS011;2535;49.888;8.942;2023-08-01T05:59:59;40.10;;;2.30;;
5032;SDS011;2535;49.888;8.942;2023-08-01T06:02:25;36.77;;;2.47;;
5032;SDS011;2535;49.888;8.942;2023-08-01T06:04:52;35.27;;;1.57;;
5032;SDS011;2535;49.888;8.942;2023-08-01T06:07:18;35.80;;;1.83;;
5032;SDS011;2535;49.888;8.942;2023-08-01T06:09:48;35.90;;;1.67;;
5032;SDS011;2535;49.888;8.942;2023-08-01T06:12:16;37.20;;;2.10;;
5032;SDS011;2535;49.888;8.942;2023-08-01T06:14:42;36.50;;;1.77;;
5032;SDS011;2535;49.888;8.942;2023-08-01T06:17:08;36.50;;;1.40;;
5032;SDS011;2535;49.888;8.942;2023-08-01T06:19:34;37.60;;;2.30;;
5032;SDS011;2535;49.888;8.942;2023-08-01T06:22:00;36.20;;;1.70;;
5032;SDS011;2535;49.888;8.942;2023-08-01T06:24:26;38.03;;;1.93;;
5032;SDS011;2535;49.888;8.942;2023-08-01T06:26:52;38.63;;;2.00;;
5032;SDS011;2535;49.888;8.942;2023-08-01T06:29:18;36.10;;;1.40;;
5032;SDS011;2535;49.888;8.942;2023-08-01T06:31:44;35.60;;;1.47;;
5032;SDS011;2535;49.888;8.942;2023-08-01T06:34:10;47.30;;;2.17;;
5032;SDS011;2535;49.888;8.942;2023-08-01T06:36:36;35.63;;;1.47;;
5032;SDS011;2535;49.888;8.942;2023-08-01T06:39:02;33.90;;;1.00;;
5032;SDS011;2535;49.888;8.942;2023-08-01T06:41:28;35.70;;;1.60;;
5032;SDS011;2535;49.888;8.942;2023-08-01T06:43:54;36.60;;;1.73;;
5032;SDS011;2535;49.888;8.942;2023-08-01T06:46:20;36.50;;;2.20;;
5032;SDS011;2535;49.888;8.942;2023-08-01T06:48:46;35.33;;;1.30;;
5032;SDS011;2535;49.888;8.942;2023-08-01T06:51:12;37.70;;;1.57;;
5032;SDS011;2535;49.888;8.942;2023-08-01T06:53:38;34.67;;;1.40;;
5032;SDS011;2535;49.888;8.942;2023-08-01T06:56:04;35.67;;;1.53;;
5032;SDS011;2535;49.888;8.942;2023-08-01T06:58:30;35.70;;;1.83;;
5032;SDS011;2535;49.888;8.942;2023-08-01T07:00:56;36.27;;;1.60;;
5032;SDS011;2535;49.888;8.942;2023-08-01T07:03:22;34.90;;;1.70;;
5032;SDS011;2535;49.888;8.942;2023-08-01T07:05:48;35.57;;;1.50;;
5032;SDS011;2535;49.888;8.942;2023-08-01T07:08:14;35.70;;;1.67;;
5032;SDS011;2535;49.888;8.942;2023-08-01T07:10:41;34.73;;;1.30;;
5032;SDS011;2535;49.888;8.942;2023-08-01T07:13:07;35.17;;;1.37;;
5032;SDS011;2535;49.888;8.942;2023-08-01T07:15:33;35.10;;;1.60;;
5032;SDS011;2535;49.888;8.942;2023-08-01T07:17:59;35.93;;;1.40;;
5032;SDS011;2535;49.888;8.942;2023-08-01T07:20:25;35.37;;;1.40;;
5032;SDS011;2535;49.888;8.942;2023-08-01T07:22:51;35.00;;;1.53;;
5032;SDS011;2535;49.888;8.942;2023-08-01T07:25:17;34.97;;;1.50;;
5032;SDS011;2535;49.888;8.942;2023-08-01T07:27:44;36.20;;;1.77;;
5032;SDS011;2535;49.888;8.942;2023-08-01T07:30:10;34.63;;;1.17;;
5032;SDS011;2535;49.888;8.942;2023-08-01T07:32:36;35.47;;;1.40;;
5032;SDS011;2535;49.888;8.942;2023-08-01T07:35:03;37.97;;;2.07;;
5032;SDS011;2535;49.888;8.942;2023-08-01T07:37:29;35.50;;;1.77;;
5032;SDS011;2535;49.888;8.942;2023-08-01T07:39:55;34.70;;;1.20;;
5032;SDS011;2535;49.888;8.942;2023-08-01T07:42:22;36.90;;;1.90;;
5032;SDS011;2535;49.888;8.942;2023-08-01T07:44:48;35.87;;;1.57;;
5032;SDS011;2535;49.888;8.942;2023-08-01T07:47:14;45.23;;;1.83;;
5032;SDS011;2535;49.888;8.942;2023-08-01T07:49:40;34.87;;;1.33;;
5032;SDS011;2535;49.888;8.942;2023-08-01T07:52:06;35.03;;;1.30;;
5032;SDS011;2535;49.888;8.942;2023-08-01T07:54:32;36.70;;;1.90;;
5032;SDS011;2535;49.888;8.942;2023-08-01T07:56:58;39.00;;;1.97;;
5032;SDS011;2535;49.888;8.942;2023-08-01T07:59:24;34.97;;;1.20;;
5032;SDS011;2535;49.888;8.942;2023-08-01T08:01:50;36.30;;;1.30;;
5032;SDS011;2535;49.888;8.942;2023-08-01T08:04:17;35.00;;;1.27;;
5032;SDS011;2535;49.888;8.942;2023-08-01T08:06:43;35.30;;;1.70;;
5032;SDS011;2535;49.888;8.942;2023-08-01T08:09:09;34.80;;;1.27;;
5032;SDS011;2535;49.888;8.942;2023-08-01T08:11:35;34.27;;;1.10;;
5032;SDS011;2535;49.888;8.942;2023-08-01T08:14:01;34.23;;;1.20;;
5032;SDS011;2535;49.888;8.942;2023-08-01T08:16:27;34.37;;;1.10;;
5032;SDS011;2535;49.888;8.942;2023-08-01T08:18:53;34.63;;;1.20;;
5032;SDS011;2535;49.888;8.942;2023-08-01T08:21:19;34.80;;;1.27;;
5032;SDS011;2535;49.888;8.942;2023-08-01T08:23:45;34.33;;;1.00;;
5032;SDS011;2535;49.888;8.942;2023-08-01T08:26:11;35.00;;;1.10;;
5032;SDS011;2535;49.888;8.942;2023-08-01T08:28:37;34.60;;;1.13;;
5032;SDS011;2535;49.888;8.942;2023-08-01T08:31:04;34.27;;;1.20;;
5032;SDS011;2535;49.888;8.942;2023-08-01T08:33:30;34.30;;;1.30;;
5032;SDS011;2535;49.888;8.942;2023-08-01T08:35:56;33.40;;;1.37;;
5032;SDS011;2535;49.888;8.942;2023-08-01T08:38:22;35.10;;;1.30;;
5032;SDS011;2535;49.888;8.942;2023-08-01T08:41:01;34.10;;;1.43;;
5032;SDS011;2535;49.888;8.942;2023-08-01T08:43:32;33.90;;;1.27;;
5032;SDS011;2535;49.888;8.942;2023-08-01T08:45:59;35.17;;;1.47;;
5032;SDS011;2535;49.888;8.942;2023-08-01T08:48:26;33.90;;;1.00;;
5032;SDS011;2535;49.888;8.942;2023-08-01T08:50:52;33.63;;;1.50;;
5032;SDS011;2535;49.888;8.942;2023-08-01T08:53:18;33.00;;;1.10;;
5032;SDS011;2535;49.888;8.942;2023-08-01T08:55:44;33.07;;;1.30;;
5032;SDS011;2535;49.888;8.942;2023-08-01T08:58:10;32.37;;;1.00;;
5032;SDS011;2535;49.888;8.942;2023-08-01T09:00:37;33.77;;;1.20;;
5032;SDS011;2535;49.888;8.942;2023-08-01T09:03:03;33.07;;;1.10;;
5032;SDS011;2535;49.888;8.942;2023-08-01T09:05:31;34.83;;;1.07;;
5032;SDS011;2535;49.888;8.942;2023-08-01T09:07:59;35.10;;;1.20;;
5032;SDS011;2535;49.888;8.942;2023-08-01T09:10:27;35.10;;;1.10;;
5032;SDS011;2535;49.888;8.942;2023-08-01T09:12:53;34.23;;;1.20;;
5032;SDS011;2535;49.888;8.942;2023-08-01T09:15:19;35.40;;;1.07;;
5032;SDS011;2535;49.888;8.942;2023-08-01T09:17:49;35.07;;;1.40;;
5032;SDS011;2535;49.888;8.942;2023-08-01T09:20:15;33.20;;;1.10;;
5032;SDS011;2535;49.888;8.942;2023-08-01T09:22:44;33.63;;;1.00;;
5032;SDS011;2535;49.888;8.942;2023-08-01T09:25:11;31.20;;;1.20;;
5032;SDS011;2535;49.888;8.942;2023-08-01T09:27:38;31.47;;;1.33;;
5032;SDS011;2535;49.888;8.942;2023-08-01T09:30:04;30.00;;;1.10;;
5032;SDS011;2535;49.888;8.942;2023-08-01T09:32:30;30.00;;;1.43;;
5032;SDS011;2535;49.888;8.942;2023-08-01T09:34:59;29.20;;;1.10;;
5032;SDS011;2535;49.888;8.942;2023-08-01T09:37:25;29.40;;;1.33;;
5032;SDS011;2535;49.888;8.942;2023-08-01T09:39:54;29.30;;;1.20;;
5032;SDS011;2535;49.888;8.942;2023-08-01T09:42:21;29.70;;;1.13;;
5032;SDS011;2535;49.888;8.942;2023-08-01T09:44:46;30.50;;;1.50;;
5032;SDS011;2535;49.888;8.942;2023-08-01T09:47:12;29.00;;;1.20;;
5032;SDS011;2535;49.888;8.942;2023-08-01T09:49:47;30.30;;;1.53;;
5032;SDS011;2535;49.888;8.942;2023-08-01T09:52:13;29.97;;;1.43;;
5032;SDS011;2535;49.888;8.942;2023-08-01T09:54:39;28.93;;;1.20;;
5032;SDS011;2535;49.888;8.942;2023-08-01T09:57:05;29.10;;;1.17;;
5032;SDS011;2535;49.888;8.942;2023-08-01T09:59:32;30.80;;;1.30;;
5032;SDS011;2535;49.888;8.942;2023-08-01T10:01:59;29.20;;;1.10;;
5032;SDS011;2535;49.888;8.942;2023-08-01T10:04:27;31.00;;;1.20;;
5032;SDS011;2535;49.888;8.942;2023-08-01T10:06:57;30.30;;;1.20;;
5032;SDS011;2535;49.888;8.942;2023-08-01T10:09:24;30.03;;;1.00;;
5032;SDS011;2535;49.888;8.942;2023-08-01T10:11:50;31.50;;;1.33;;
5032;SDS011;2535;49.888;8.942;2023-08-01T10:14:17;30.20;;;1.23;;
5032;SDS011;2535;49.888;8.942;2023-08-01T10:16:43;30.53;;;1.10;;
5032;SDS011;2535;49.888;8.942;2023-08-01T10:19:09;29.43;;;1.10;;
5032;SDS011;2535;49.888;8.942;2023-08-01T10:21:37;30.60;;;1.20;;
5032;SDS011;2535;49.888;8.942;2023-08-01T10:24:03;28.87;;;1.20;;
5032;SDS011;2535;49.888;8.942;2023-08-01T10:26:30;28.30;;;1.20;;
5032;SDS011;2535;49.888;8.942;2023-08-01T10:28:56;28.17;;;1.13;;
5032;SDS011;2535;49.888;8.942;2023-08-01T10:31:24;28.60;;;1.03;;
5032;SDS011;2535;49.888;8.942;2023-08-01T10:33:51;28.97;;;1.13;;
5032;SDS011;2535;49.888;8.942;2023-08-01T10:36:21;36.20;;;1.53;;
5032;SDS011;2535;49.888;8.942;2023-08-01T10:38:53;27.90;;;1.20;;
5032;SDS011;2535;49.888;8.942;2023-08-01T10:43:45;27.60;;;1.07;;
5032;SDS011;2535;49.888;8.942;2023-08-01T10:46:11;27.80;;;1.23;;
5032;SDS011;2535;49.888;8.942;2023-08-01T10:48:50;27.60;;;1.40;;
5032;SDS011;2535;49.888;8.942;2023-08-01T10:51:16;26.70;;;1.10;;
5032;SDS011;2535;49.888;8.942;2023-08-01T10:53:42;27.50;;;1.10;;
5032;SDS011;2535;49.888;8.942;2023-08-01T10:56:15;25.70;;;1.07;;
5032;SDS011;2535;49.888;8.942;2023-08-01T10:58:41;25.50;;;1.00;;
5032;SDS011;2535;49.888;8.942;2023-08-01T11:01:07;26.00;;;1.40;;
5032;SDS011;2535;49.888;8.942;2023-08-01T11:03:34;25.10;;;1.00;;
5032;SDS011;2535;49.888;8.942;2023-08-01T11:06:00;25.30;;;1.30;;
5032;SDS011;2535;49.888;8.942;2023-08-01T11:08:38;25.80;;;1.53;;
5032;SDS011;2535;49.888;8.942;2023-08-01T11:11:04;26.10;;;1.40;;
5032;SDS011;2535;49.888;8.942;2023-08-01T11:13:31;27.13;;;1.43;;
5032;SDS011;2535;49.888;8.942;2023-08-01T11:15:59;24.93;;;1.10;;
5032;SDS011;2535;49.888;8.942;2023-08-01T11:18:25;24.90;;;1.17;;
5032;SDS011;2535;49.888;8.942;2023-08-01T11:20:51;25.27;;;1.20;;
5032;SDS011;2535;49.888;8.942;2023-08-01T11:23:17;24.50;;;1.00;;
5032;SDS011;2535;49.888;8.942;2023-08-01T11:25:43;24.57;;;1.07;;
5032;SDS011;2535;49.888;8.942;2023-08-01T11:28:15;26.57;;;1.80;;
5032;SDS011;2535;49.888;8.942;2023-08-01T11:30:41;24.50;;;1.30;;
5032;SDS011;2535;49.888;8.942;2023-08-01T11:35:41;25.37;;;1.20;;
5032;SDS011;2535;49.888;8.942;2023-08-01T11:38:08;24.40;;;1.20;;
5032;SDS011;2535;49.888;8.942;2023-08-01T11:40:34;24.57;;;1.27;;
5032;SDS011;2535;49.888;8.942;2023-08-01T11:43:00;31.33;;;1.30;;
5032;SDS011;2535;49.888;8.942;2023-08-01T11:45:26;24.00;;;1.00;;
5032;SDS011;2535;49.888;8.942;2023-08-01T11:47:52;27.40;;;1.30;;
5032;SDS011;2535;49.888;8.942;2023-08-01T11:50:21;26.67;;;1.67;;
5032;SDS011;2535;49.888;8.942;2023-08-01T11:52:50;23.90;;;1.13;;
5032;SDS011;2535;49.888;8.942;2023-08-01T11:55:23;24.33;;;0.97;;
5032;SDS011;2535;49.888;8.942;2023-08-01T11:57:52;23.57;;;0.90;;
5032;SDS011;2535;49.888;8.942;2023-08-01T12:00:22;24.23;;;1.20;;
5032;SDS011;2535;49.888;8.942;2023-08-01T12:02:48;25.87;;;1.40;;
5032;SDS011;2535;49.888;8.942;2023-08-01T12:05:22;23.80;;;1.07;;
5032;SDS011;2535;49.888;8.942;2023-08-01T12:07:48;23.50;;;1.00;;
5032;SDS011;2535;49.888;8.942;2023-08-01T12:10:14;23.67;;;0.90;;
5032;SDS011;2535;49.888;8.942;2023-08-01T12:12:46;23.70;;;0.90;;
5032;SDS011;2535;49.888;8.942;2023-08-01T12:15:13;24.40;;;0.90;;
5032;SDS011;2535;49.888;8.942;2023-08-01T12:17:39;23.83;;;1.20;;
5032;SDS011;2535;49.888;8.942;2023-08-01T12:20:06;24.10;;;1.30;;
5032;SDS011;2535;49.888;8.942;2023-08-01T12:22:33;23.77;;;1.10;;
5032;SDS011;2535;49.888;8.942;2023-08-01T12:24:59;25.50;;;1.10;;
5032;SDS011;2535;49.888;8.942;2023-08-01T12:27:25;24.27;;;1.30;;
5032;SDS011;2535;49.888;8.942;2023-08-01T12:29:51;24.13;;;1.27;;
5032;SDS011;2535;49.888;8.942;2023-08-01T12:32:16;23.47;;;1.17;;
5032;SDS011;2535;49.888;8.942;2023-08-01T12:34:43;24.50;;;1.20;;
5032;SDS011;2535;49.888;8.942;2023-08-01T12:37:09;23.83;;;1.20;;
5032;SDS011;2535;49.888;8.942;2023-08-01T12:39:35;23.70;;;1.03;;
5032;SDS011;2535;49.888;8.942;2023-08-01T12:42:01;23.67;;;1.07;;
5032;SDS011;2535;49.888;8.942;2023-08-01T12:44:26;23.63;;;1.23;;
5032;SDS011;2535;49.888;8.942;2023-08-01T12:46:52;24.07;;;1.27;;
5032;SDS011;2535;49.888;8.942;2023-08-01T12:49:18;24.13;;;1.20;;
5032;SDS011;2535;49.888;8.942;2023-08-01T12:51:45;23.80;;;1.10;;
5032;SDS011;2535;49.888;8.942;2023-08-01T12:54:11;26.43;;;1.00;;
5032;SDS011;2535;49.888;8.942;2023-08-01T12:56:37;26.80;;;1.40;;
5032;SDS011;2535;49.888;8.942;2023-08-01T12:59:03;24.43;;;1.20;;
5032;SDS011;2535;49.888;8.942;2023-08-01T13:01:29;23.53;;;1.10;;
5032;SDS011;2535;49.888;8.942;2023-08-01T13:03:55;23.83;;;1.10;;
5032;SDS011;2535;49.888;8.942;2023-08-01T13:06:21;26.30;;;1.10;;
5032;SDS011;2535;49.888;8.942;2023-08-01T13:08:47;23.30;;;1.10;;
5032;SDS011;2535;49.888;8.942;2023-08-01T13:11:13;23.73;;;1.10;;
5032;SDS011;2535;49.888;8.942;2023-08-01T13:13:40;24.40;;;1.60;;
5032;SDS011;2535;49.888;8.942;2023-08-01T13:16:06;24.67;;;1.40;;
5032;SDS011;2535;49.888;8.942;2023-08-01T13:18:32;28.10;;;1.30;;
5032;SDS011;2535;49.888;8.942;2023-08-01T13:20:58;24.90;;;1.37;;
5032;SDS011;2535;49.888;8.942;2023-08-01T13:23:25;26.63;;;1.47;;
5032;SDS011;2535;49.888;8.942;2023-08-01T13:25:51;23.37;;;1.00;;
5032;SDS011;2535;49.888;8.942;2023-08-01T13:28:17;23.30;;;1.07;;
5032;SDS011;2535;49.888;8.942;2023-08-01T13:30:43;23.10;;;1.10;;
5032;SDS011;2535;49.888;8.942;2023-08-01T13:33:09;23.97;;;1.20;;
5032;SDS011;2535;49.888;8.942;2023-08-01T13:35:35;23.57;;;1.13;;
5032;SDS011;2535;49.888;8.942;2023-08-01T13:38:01;26.33;;;1.40;;
5032;SDS011;2535;49.888;8.942;2023-08-01T13:40:28;22.50;;;0.80;;
5032;SDS011;2535;49.888;8.942;2023-08-01T13:42:54;23.80;;;1.23;;
5032;SDS011;2535;49.888;8.942;2023-08-01T13:45:20;23.07;;;1.03;;
5032;SDS011;2535;49.888;8.942;2023-08-01T13:47:46;23.37;;;1.20;;
5032;SDS011;2535;49.888;8.942;2023-08-01T13:50:12;23.77;;;1.40;;
5032;SDS011;2535;49.888;8.942;2023-08-01T13:52:38;24.83;;;1.33;;
5032;SDS011;2535;49.888;8.942;2023-08-01T13:55:04;24.60;;;1.20;;
5032;SDS011;2535;49.888;8.942;2023-08-01T13:57:31;23.30;;;1.17;;
5032;SDS011;2535;49.888;8.942;2023-08-01T13:59:57;24.27;;;1.27;;
5032;SDS011;2535;49.888;8.942;2023-08-01T14:02:23;23.43;;;1.37;;
5032;SDS011;2535;49.888;8.942;2023-08-01T14:04:52;23.37;;;1.07;;
5032;SDS011;2535;49.888;8.942;2023-08-01T14:07:18;25.90;;;1.67;;
5032;SDS011;2535;49.888;8.942;2023-08-01T14:09:44;23.43;;;1.20;;
5032;SDS011;2535;49.888;8.942;2023-08-01T14:12:10;23.20;;;1.13;;
5032;SDS011;2535;49.888;8.942;2023-08-01T14:14:36;22.67;;;1.00;;
5032;SDS011;2535;49.888;8.942;2023-08-01T14:17:02;22.80;;;1.10;;
5032;SDS011;2535;49.888;8.942;2023-08-01T14:19:29;23.17;;;1.07;;
5032;SDS011;2535;49.888;8.942;2023-08-01T14:21:55;22.43;;;1.00;;
5032;SDS011;2535;49.888;8.942;2023-08-01T14:24:22;22.50;;;1.00;;
5032;SDS011;2535;49.888;8.942;2023-08-01T14:26:48;23.03;;;1.00;;
5032;SDS011;2535;49.888;8.942;2023-08-01T14:29:16;22.30;;;1.07;;
5032;SDS011;2535;49.888;8.942;2023-08-01T14:31:43;22.40;;;0.93;;
5032;SDS011;2535;49.888;8.942;2023-08-01T14:34:09;22.87;;;1.10;;
5032;SDS011;2535;49.888;8.942;2023-08-01T14:36:35;23.00;;;1.40;;
5032;SDS011;2535;49.888;8.942;2023-08-01T14:39:01;31.80;;;1.33;;
5032;SDS011;2535;49.888;8.942;2023-08-01T14:41:28;24.70;;;1.03;;
5032;SDS011;2535;49.888;8.942;2023-08-01T14:43:54;25.97;;;1.80;;
5032;SDS011;2535;49.888;8.942;2023-08-01T14:46:20;26.90;;;1.50;;
5032;SDS011;2535;49.888;8.942;2023-08-01T14:48:46;27.17;;;1.43;;
5032;SDS011;2535;49.888;8.942;2023-08-01T14:51:12;27.73;;;1.80;;
5032;SDS011;2535;49.888;8.942;2023-08-01T14:53:38;27.80;;;1.40;;
5032;SDS011;2535;49.888;8.942;2023-08-01T14:56:04;28.57;;;1.40;;
5032;SDS011;2535;49.888;8.942;2023-08-01T14:58:33;29.33;;;1.73;;
5032;SDS011;2535;49.888;8.942;2023-08-01T15:01:03;28.47;;;1.20;;